sensor_id;sensor_type;location;lat;lon;timestamp;pressure;altitude;pressure_sealevel;temperature;humidity
21760;BME280;11041;50.854;20.580;2023-03-04T00:00:54;98599.41;;;-1.25;82.60
21760;BME280;11041;50.854;20.580;2023-03-04T00:03:22;98581.81;;;-1.27;82.88
21760;BME280;11041;50.854;20.580;2023-03-04T00:05:48;98557.63;;;-1.39;82.85
21760;BME280;11041;50.854;20.580;2023-03-04T00:08:15;98604.72;;;-1.13;83.57
21760;BME280;11041;50.854;20.580;2023-03-04T00:10:43;98622.81;;;-0.97;83.49
21760;BME280;11041;50.854;20.580;2023-03-04T00:13:10;98623.22;;;-0.88;83.10
21760;BME280;11041;50.854;20.580;2023-03-04T00:15:36;98618.56;;;-0.93;83.11
21760;BME280;11041;50.854;20.580;2023-03-04T00:18:03;98599.03;;;-1.00;83.47
21760;BME280;11041;50.854;20.580;2023-03-04T00:20:30;98607.19;;;-0.95;83.59
21760;BME280;11041;50.854;20.580;2023-03-04T00:22:56;98602.63;;;-0.94;83.45
21760;BME280;11041;50.854;20.580;2023-03-04T00:25:23;98616.75;;;-0.87;84.12
21760;BME280;11041;50.854;20.580;2023-03-04T00:27:49;98602.97;;;-0.91;84.35
21760;BME280;11041;50.854;20.580;2023-03-04T00:30:16;98583.72;;;-0.94;84.00
21760;BME280;11041;50.854;20.580;2023-03-04T00:32:43;98578.91;;;-0.92;83.80
21760;BME280;11041;50.854;20.580;2023-03-04T00:35:09;98575.84;;;-0.84;83.36
21760;BME280;11041;50.854;20.580;2023-03-04T00:37:36;98585.56;;;-0.83;83.76
21760;BME280;11041;50.854;20.580;2023-03-04T00:40:03;98576.81;;;-0.90;83.47
21760;BME280;11041;50.854;20.580;2023-03-04T00:42:29;98579.41;;;-0.95;83.60
21760;BME280;11041;50.854;20.580;2023-03-04T00:44:56;98597.16;;;-0.82;83.20
21760;BME280;11041;50.854;20.580;2023-03-04T00:47:23;98582.13;;;-0.95;83.13
21760;BME280;11041;50.854;20.580;2023-03-04T00:49:49;98575.25;;;-1.03;83.29
21760;BME280;11041;50.854;20.580;2023-03-04T00:52:16;98584.66;;;-0.89;83.07
21760;BME280;11041;50.854;20.580;2023-03-04T00:54:42;98576.94;;;-0.97;83.01
21760;BME280;11041;50.854;20.580;2023-03-04T00:57:09;98569.78;;;-1.08;83.26
21760;BME280;11041;50.854;20.580;2023-03-04T00:59:35;98582.03;;;-1.00;82.99
21760;BME280;11041;50.854;20.580;2023-03-04T01:02:02;98579.91;;;-0.98;83.24
21760;BME280;11041;50.854;20.580;2023-03-04T01:04:29;98578.69;;;-0.91;83.63
21760;BME280;11041;50.854;20.580;2023-03-04T01:06:55;98535.09;;;-1.16;83.25
21760;BME280;11041;50.854;20.580;2023-03-04T01:09:22;98560.94;;;-1.03;83.42
21760;BME280;11041;50.854;20.580;2023-03-04T01:11:48;98552.28;;;-1.05;83.51
21760;BME280;11041;50.854;20.580;2023-03-04T01:14:15;98576.38;;;-0.99;83.38
21760;BME280;11041;50.854;20.580;2023-03-04T01:16:41;98572.56;;;-1.03;83.48
21760;BME280;11041;50.854;20.580;2023-03-04T01:19:08;98556.75;;;-1.11;83.95
21760;BME280;11041;50.854;20.580;2023-03-04T01:21:34;98555.94;;;-1.12;83.65
21760;BME280;11041;50.854;20.580;2023-03-04T01:24:01;98549.97;;;-1.14;83.97
21760;BME280;11041;50.854;20.580;2023-03-04T01:26:28;98528.25;;;-1.24;84.06
21760;BME280;11041;50.854;20.580;2023-03-04T01:28:54;98537.31;;;-1.13;83.33
21760;BME280;11041;50.854;20.580;2023-03-04T01:31:21;98526.88;;;-1.10;83.45
21760;BME280;11041;50.854;20.580;2023-03-04T01:33:47;98538.88;;;-1.00;83.39
21760;BME280;11041;50.854;20.580;2023-03-04T01:36:14;98507.66;;;-1.13;83.60
21760;BME280;11041;50.854;20.580;2023-03-04T01:38:40;98501.28;;;-1.24;83.56
21760;BME280;11041;50.854;20.580;2023-03-04T01:41:07;98519.28;;;-1.13;83.70
21760;BME280;11041;50.854;20.580;2023-03-04T01:43:36;98502.91;;;-1.23;83.42
21760;BME280;11041;50.854;20.580;2023-03-04T01:46:05;98506.84;;;-1.14;83.87
21760;BME280;11041;50.854;20.580;2023-03-04T01:48:37;98503.31;;;-1.14;83.80
21760;BME280;11041;50.854;20.580;2023-03-04T01:51:11;98489.53;;;-1.18;83.48
21760;BME280;11041;50.854;20.580;2023-03-04T01:53:39;98473.16;;;-1.28;84.09
21760;BME280;11041;50.854;20.580;2023-03-04T01:56:21;98486.41;;;-1.10;84.32
21760;BME280;11041;50.854;20.580;2023-03-04T01:59:21;98485.41;;;-1.03;83.94
21760;BME280;11041;50.854;20.580;2023-03-04T02:01:56;98474.00;;;-1.11;84.25
21760;BME280;11041;50.854;20.580;2023-03-04T02:04:28;98478.75;;;-1.18;85.04
21760;BME280;11041;50.854;20.580;2023-03-04T02:06:58;98463.03;;;-1.21;84.92
21760;BME280;11041;50.854;20.580;2023-03-04T02:09:26;98480.53;;;-1.07;84.47
21760;BME280;11041;50.854;20.580;2023-03-04T02:11:54;98481.09;;;-1.04;84.73
21760;BME280;11041;50.854;20.580;2023-03-04T02:14:21;98459.63;;;-1.16;85.03
21760;BME280;11041;50.854;20.580;2023-03-04T02:16:49;98468.94;;;-1.07;84.89
21760;BME280;11041;50.854;20.580;2023-03-04T02:21:42;98465.72;;;-1.04;84.89
21760;BME280;11041;50.854;20.580;2023-03-04T02:24:24;98474.72;;;-0.98;84.70
21760;BME280;11041;50.854;20.580;2023-03-04T02:26:52;98446.94;;;-1.16;85.47
21760;BME280;11041;50.854;20.580;2023-03-04T02:29:19;98470.88;;;-1.02;85.16
21760;BME280;11041;50.854;20.580;2023-03-04T02:31:51;98471.84;;;-1.09;85.36
21760;BME280;11041;50.854;20.580;2023-03-04T02:34:26;98454.97;;;-1.21;85.67
21760;BME280;11041;50.854;20.580;2023-03-04T02:36:56;98451.13;;;-1.25;86.30
21760;BME280;11041;50.854;20.580;2023-03-04T02:39:31;98448.31;;;-1.13;86.21
21760;BME280;11041;50.854;20.580;2023-03-04T02:42:00;98439.19;;;-1.12;85.76
21760;BME280;11041;50.854;20.580;2023-03-04T02:44:34;98462.22;;;-1.04;85.75
21760;BME280;11041;50.854;20.580;2023-03-04T02:47:03;98451.59;;;-1.11;86.40
21760;BME280;11041;50.854;20.580;2023-03-04T02:49:32;98427.53;;;-1.18;86.01
21760;BME280;11041;50.854;20.580;2023-03-04T02:52:20;98431.94;;;-1.29;86.42
21760;BME280;11041;50.854;20.580;2023-03-04T02:54:47;98441.31;;;-1.14;86.32
21760;BME280;11041;50.854;20.580;2023-03-04T02:57:15;98425.88;;;-1.19;86.67
21760;BME280;11041;50.854;20.580;2023-03-04T02:59:42;98443.28;;;-1.10;86.22
21760;BME280;11041;50.854;20.580;2023-03-04T03:02:09;98423.00;;;-1.12;86.27
21760;BME280;11041;50.854;20.580;2023-03-04T03:04:40;98406.78;;;-1.17;86.50
21760;BME280;11041;50.854;20.580;2023-03-04T03:07:07;98425.28;;;-1.04;86.30
21760;BME280;11041;50.854;20.580;2023-03-04T03:09:33;98414.34;;;-1.14;86.44
21760;BME280;11041;50.854;20.580;2023-03-04T03:12:00;98421.56;;;-1.20;86.57
21760;BME280;11041;50.854;20.580;2023-03-04T03:14:27;98411.16;;;-1.11;86.72
21760;BME280;11041;50.854;20.580;2023-03-04T03:16:53;98402.41;;;-1.18;86.89
21760;BME280;11041;50.854;20.580;2023-03-04T03:19:19;98415.50;;;-1.10;86.71
21760;BME280;11041;50.854;20.580;2023-03-04T03:21:46;98421.47;;;-1.08;87.52
21760;BME280;11041;50.854;20.580;2023-03-04T03:24:13;98403.44;;;-1.24;87.34
21760;BME280;11041;50.854;20.580;2023-03-04T03:26:40;98427.53;;;-1.18;87.38
21760;BME280;11041;50.854;20.580;2023-03-04T03:29:06;98423.59;;;-1.10;87.08
21760;BME280;11041;50.854;20.580;2023-03-04T03:31:33;98404.44;;;-1.09;87.34
21760;BME280;11041;50.854;20.580;2023-03-04T03:33:59;98420.47;;;-1.02;87.29
21760;BME280;11041;50.854;20.580;2023-03-04T03:36:26;98396.56;;;-1.15;86.69
21760;BME280;11041;50.854;20.580;2023-03-04T03:38:52;98389.22;;;-1.20;86.66
21760;BME280;11041;50.854;20.580;2023-03-04T03:41:19;98398.69;;;-1.17;86.33
21760;BME280;11041;50.854;20.580;2023-03-04T03:43:45;98390.91;;;-1.14;85.38
21760;BME280;11041;50.854;20.580;2023-03-04T03:46:12;98402.25;;;-1.12;85.57
21760;BME280;11041;50.854;20.580;2023-03-04T03:48:38;98406.03;;;-1.13;86.17
21760;BME280;11041;50.854;20.580;2023-03-04T03:51:05;98399.06;;;-1.25;86.00
21760;BME280;11041;50.854;20.580;2023-03-04T03:53:31;98393.75;;;-1.20;86.59
21760;BME280;11041;50.854;20.580;2023-03-04T03:55:58;98380.78;;;-1.23;86.46
21760;BME280;11041;50.854;20.580;2023-03-04T03:58:24;98354.34;;;-1.26;86.75
21760;BME280;11041;50.854;20.580;2023-03-04T04:00:52;98374.84;;;-1.03;86.78
21760;BME280;11041;50.854;20.580;2023-03-04T04:03:19;98364.00;;;-1.09;87.26
21760;BME280;11041;50.854;20.580;2023-03-04T04:05:45;98352.47;;;-1.04;86.57
21760;BME280;11041;50.854;20.580;2023-03-04T04:08:16;98355.78;;;-1.19;86.09
21760;BME280;11041;50.854;20.580;2023-03-04T04:10:44;98363.94;;;-1.14;86.14
21760;BME280;11041;50.854;20.580;2023-03-04T04:13:10;98350.63;;;-1.20;85.93
21760;BME280;11041;50.854;20.580;2023-03-04T04:15:37;98351.22;;;-1.35;86.73
21760;BME280;11041;50.854;20.580;2023-03-04T04:18:06;98368.13;;;-1.23;86.33
21760;BME280;11041;50.854;20.580;2023-03-04T04:20:34;98334.19;;;-1.41;86.92
21760;BME280;11041;50.854;20.580;2023-03-04T04:23:01;98324.72;;;-1.43;86.25
21760;BME280;11041;50.854;20.580;2023-03-04T04:25:28;98322.59;;;-1.41;86.84
21760;BME280;11041;50.854;20.580;2023-03-04T04:27:54;98329.09;;;-1.37;86.21
21760;BME280;11041;50.854;20.580;2023-03-04T04:30:21;98324.22;;;-1.40;86.98
21760;BME280;11041;50.854;20.580;2023-03-04T04:32:47;98331.63;;;-1.31;86.78
21760;BME280;11041;50.854;20.580;2023-03-04T04:35:14;98316.53;;;-1.32;86.00
21760;BME280;11041;50.854;20.580;2023-03-04T04:37:41;98337.16;;;-1.20;85.55
21760;BME280;11041;50.854;20.580;2023-03-04T04:40:08;98324.84;;;-1.33;85.50
21760;BME280;11041;50.854;20.580;2023-03-04T04:42:35;98317.09;;;-1.30;84.43
21760;BME280;11041;50.854;20.580;2023-03-04T04:45:03;98330.72;;;-1.19;84.52
21760;BME280;11041;50.854;20.580;2023-03-04T04:47:29;98323.94;;;-1.22;84.71
21760;BME280;11041;50.854;20.580;2023-03-04T04:49:56;98305.09;;;-1.39;84.53
21760;BME280;11041;50.854;20.580;2023-03-04T04:52:22;98300.53;;;-1.38;85.00
21760;BME280;11041;50.854;20.580;2023-03-04T04:54:49;98305.75;;;-1.32;84.90
21760;BME280;11041;50.854;20.580;2023-03-04T04:57:15;98305.56;;;-1.25;84.98
21760;BME280;11041;50.854;20.580;2023-03-04T04:59:42;98295.78;;;-1.31;84.76
21760;BME280;11041;50.854;20.580;2023-03-04T05:02:08;98323.44;;;-1.19;84.68
21760;BME280;11041;50.854;20.580;2023-03-04T05:04:35;98295.19;;;-1.33;84.05
21760;BME280;11041;50.854;20.580;2023-03-04T05:07:02;98286.53;;;-1.35;84.77
21760;BME280;11041;50.854;20.580;2023-03-04T05:09:28;98285.72;;;-1.36;84.15
21760;BME280;11041;50.854;20.580;2023-03-04T05:11:55;98288.31;;;-1.24;83.43
21760;BME280;11041;50.854;20.580;2023-03-04T05:14:21;98273.56;;;-1.38;83.47
21760;BME280;11041;50.854;20.580;2023-03-04T05:16:48;98299.09;;;-1.24;83.79
21760;BME280;11041;50.854;20.580;2023-03-04T05:19:15;98286.13;;;-1.27;83.67
21760;BME280;11041;50.854;20.580;2023-03-04T05:21:41;98289.94;;;-1.23;83.72
21760;BME280;11041;50.854;20.580;2023-03-04T05:24:08;98285.38;;;-1.22;83.17
21760;BME280;11041;50.854;20.580;2023-03-04T05:26:34;98303.41;;;-1.23;83.96
21760;BME280;11041;50.854;20.580;2023-03-04T05:29:02;98307.69;;;-1.27;83.77
21760;BME280;11041;50.854;20.580;2023-03-04T05:31:29;98309.88;;;-1.24;84.14
21760;BME280;11041;50.854;20.580;2023-03-04T05:33:56;98313.38;;;-1.23;84.10
21760;BME280;11041;50.854;20.580;2023-03-04T05:36:22;98315.84;;;-1.22;84.18
21760;BME280;11041;50.854;20.580;2023-03-04T05:38:49;98321.25;;;-1.22;84.32
21760;BME280;11041;50.854;20.580;2023-03-04T05:41:15;98321.66;;;-1.30;84.06
21760;BME280;11041;50.854;20.580;2023-03-04T05:44:03;98320.03;;;-1.31;84.13
21760;BME280;11041;50.854;20.580;2023-03-04T05:46:30;98338.66;;;-1.30;84.00
21760;BME280;11041;50.854;20.580;2023-03-04T05:48:57;98345.22;;;-1.20;84.55
21760;BME280;11041;50.854;20.580;2023-03-04T05:51:23;98325.72;;;-1.27;84.40
21760;BME280;11041;50.854;20.580;2023-03-04T05:53:50;98336.03;;;-1.24;84.00
21760;BME280;11041;50.854;20.580;2023-03-04T05:56:19;98339.38;;;-1.17;84.20
21760;BME280;11041;50.854;20.580;2023-03-04T05:58:46;98321.97;;;-1.26;84.45
21760;BME280;11041;50.854;20.580;2023-03-04T06:01:13;98337.34;;;-1.27;84.22
21760;BME280;11041;50.854;20.580;2023-03-04T06:03:41;98349.06;;;-1.16;84.33
21760;BME280;11041;50.854;20.580;2023-03-04T06:06:13;98348.19;;;-1.22;83.93
21760;BME280;11041;50.854;20.580;2023-03-04T06:08:40;98359.94;;;-1.11;84.17
21760;BME280;11041;50.854;20.580;2023-03-04T06:11:07;98329.56;;;-1.23;84.57
21760;BME280;11041;50.854;20.580;2023-03-04T06:13:33;98359.06;;;-1.17;84.06
21760;BME280;11041;50.854;20.580;2023-03-04T06:16:00;98359.47;;;-1.25;84.45
21760;BME280;11041;50.854;20.580;2023-03-04T06:18:28;98351.41;;;-1.25;84.44
21760;BME280;11041;50.854;20.580;2023-03-04T06:21:00;98368.59;;;-1.09;83.78
21760;BME280;11041;50.854;20.580;2023-03-04T06:23:29;98342.88;;;-1.17;84.01
21760;BME280;11041;50.854;20.580;2023-03-04T06:25:58;98353.91;;;-1.18;83.96
21760;BME280;11041;50.854;20.580;2023-03-04T06:28:25;98361.06;;;-1.07;84.12
21760;BME280;11041;50.854;20.580;2023-03-04T06:30:53;98362.44;;;-1.04;83.44
21760;BME280;11041;50.854;20.580;2023-03-04T06:33:21;98355.22;;;-1.21;84.29
21760;BME280;11041;50.854;20.580;2023-03-04T06:35:52;98372.28;;;-1.15;83.92
21760;BME280;11041;50.854;20.580;2023-03-04T06:38:20;98342.88;;;-1.17;83.42
21760;BME280;11041;50.854;20.580;2023-03-04T06:40:47;98356.81;;;-1.03;83.41
21760;BME280;11041;50.854;20.580;2023-03-04T06:43:13;98352.41;;;-1.09;83.72
21760;BME280;11041;50.854;20.580;2023-03-04T06:45:40;98358.78;;;-0.98;83.71
21760;BME280;11041;50.854;20.580;2023-03-04T06:48:06;98354.94;;;-1.02;83.72
21760;BME280;11041;50.854;20.580;2023-03-04T06:50:33;98357.69;;;-0.97;83.78
21760;BME280;11041;50.854;20.580;2023-03-04T06:52:59;98362.41;;;-0.88;83.14
21760;BME280;11041;50.854;20.580;2023-03-04T06:55:26;98336.34;;;-0.99;82.92
21760;BME280;11041;50.854;20.580;2023-03-04T06:57:52;98351.84;;;-0.89;83.44
21760;BME280;11041;50.854;20.580;2023-03-04T07:00:20;98350.63;;;-0.81;83.26
21760;BME280;11041;50.854;20.580;2023-03-04T07:02:50;98363.78;;;-0.85;82.97
21760;BME280;11041;50.854;20.580;2023-03-04T07:05:16;98336.75;;;-0.90;82.78
21760;BME280;11041;50.854;20.580;2023-03-04T07:07:44;98353.66;;;-0.73;82.34
21760;BME280;11041;50.854;20.580;2023-03-04T07:10:10;98367.66;;;-0.76;82.20
21760;BME280;11041;50.854;20.580;2023-03-04T07:12:37;98330.28;;;-0.89;82.30
21760;BME280;11041;50.854;20.580;2023-03-04T07:15:05;98333.34;;;-0.80;82.63
21760;BME280;11041;50.854;20.580;2023-03-04T07:17:32;98352.63;;;-0.72;82.51
21760;BME280;11041;50.854;20.580;2023-03-04T07:20:00;98352.69;;;-0.67;82.25
21760;BME280;11041;50.854;20.580;2023-03-04T07:22:27;98334.78;;;-0.73;82.27
21760;BME280;11041;50.854;20.580;2023-03-04T07:24:53;98334.31;;;-0.70;82.66
21760;BME280;11041;50.854;20.580;2023-03-04T07:27:21;98332.09;;;-0.73;82.15
21760;BME280;11041;50.854;20.580;2023-03-04T07:29:47;98328.06;;;-0.70;82.16
21760;BME280;11041;50.854;20.580;2023-03-04T07:32:14;98332.22;;;-0.62;82.17
21760;BME280;11041;50.854;20.580;2023-03-04T07:34:40;98339.47;;;-0.63;82.44
21760;BME280;11041;50.854;20.580;2023-03-04T07:37:07;98335.13;;;-0.69;81.88
21760;BME280;11041;50.854;20.580;2023-03-04T07:39:34;98331.91;;;-0.66;82.40
21760;BME280;11041;50.854;20.580;2023-03-04T07:42:00;98336.84;;;-0.58;82.05
21760;BME280;11041;50.854;20.580;2023-03-04T07:44:27;98316.34;;;-0.59;81.98
21760;BME280;11041;50.854;20.580;2023-03-04T07:46:53;98340.72;;;-0.49;81.54
21760;BME280;11041;50.854;20.580;2023-03-04T07:49:20;98316.91;;;-0.57;81.48
21760;BME280;11041;50.854;20.580;2023-03-04T07:51:47;98311.31;;;-0.50;81.32
21760;BME280;11041;50.854;20.580;2023-03-04T07:54:13;98314.06;;;-0.45;81.58
21760;BME280;11041;50.854;20.580;2023-03-04T07:56:40;98329.16;;;-0.44;81.51
21760;BME280;11041;50.854;20.580;2023-03-04T07:59:06;98320.78;;;-0.48;81.29
21760;BME280;11041;50.854;20.580;2023-03-04T08:01:42;98328.72;;;-0.36;80.64
21760;BME280;11041;50.854;20.580;2023-03-04T08:04:08;98340.63;;;-0.32;80.07
21760;BME280;11041;50.854;20.580;2023-03-04T08:06:35;98340.59;;;-0.37;80.02
21760;BME280;11041;50.854;20.580;2023-03-04T08:09:06;98337.88;;;-0.37;80.66
21760;BME280;11041;50.854;20.580;2023-03-04T08:11:35;98330.88;;;-0.38;80.29
21760;BME280;11041;50.854;20.580;2023-03-04T08:14:03;98338.44;;;-0.35;80.59
21760;BME280;11041;50.854;20.580;2023-03-04T08:16:30;98317.00;;;-0.47;80.33
21760;BME280;11041;50.854;20.580;2023-03-04T08:19:00;98310.28;;;-0.44;80.25
21760;BME280;11041;50.854;20.580;2023-03-04T08:21:28;98336.75;;;-0.41;80.42
21760;BME280;11041;50.854;20.580;2023-03-04T08:23:58;98313.97;;;-0.55;80.84
21760;BME280;11041;50.854;20.580;2023-03-04T08:26:32;98344.41;;;-0.33;80.21
21760;BME280;11041;50.854;20.580;2023-03-04T08:29:02;98330.44;;;-0.25;80.25
21760;BME280;11041;50.854;20.580;2023-03-04T08:31:30;98328.25;;;-0.28;80.18
21760;BME280;11041;50.854;20.580;2023-03-04T08:33:57;98344.41;;;-0.33;80.34
21760;BME280;11041;50.854;20.580;2023-03-04T08:36:25;98319.13;;;-0.49;80.42
21760;BME280;11041;50.854;20.580;2023-03-04T08:38:51;98319.59;;;-0.30;80.10
21760;BME280;11041;50.854;20.580;2023-03-04T08:41:18;98303.56;;;-0.41;80.31
21760;BME280;11041;50.854;20.580;2023-03-04T08:43:45;98339.63;;;-0.26;80.13
21760;BME280;11041;50.854;20.580;2023-03-04T08:46:13;98304.47;;;-0.31;79.38
21760;BME280;11041;50.854;20.580;2023-03-04T08:48:39;98304.78;;;-0.27;79.60
21760;BME280;11041;50.854;20.580;2023-03-04T08:51:09;98295.25;;;-0.35;79.58
21760;BME280;11041;50.854;20.580;2023-03-04T08:53:37;98303.34;;;-0.35;80.03
21760;BME280;11041;50.854;20.580;2023-03-04T08:56:05;98325.66;;;-0.17;79.28
21760;BME280;11041;50.854;20.580;2023-03-04T08:58:33;98306.72;;;-0.23;79.45
21760;BME280;11041;50.854;20.580;2023-03-04T09:01:02;98312.66;;;-0.20;79.36
21760;BME280;11041;50.854;20.580;2023-03-04T09:03:29;98315.06;;;-0.24;78.70
21760;BME280;11041;50.854;20.580;2023-03-04T09:05:57;98306.94;;;-0.24;79.65
21760;BME280;11041;50.854;20.580;2023-03-04T09:08:23;98310.53;;;-0.18;79.61
21760;BME280;11041;50.854;20.580;2023-03-04T09:10:53;98303.50;;;-0.19;79.15
21760;BME280;11041;50.854;20.580;2023-03-04T09:13:21;98292.97;;;-0.21;79.55
21760;BME280;11041;50.854;20.580;2023-03-04T09:15:51;98296.75;;;-0.17;78.94
21760;BME280;11041;50.854;20.580;2023-03-04T09:18:20;98304.66;;;-0.10;79.11
21760;BME280;11041;50.854;20.580;2023-03-04T09:20:48;98310.88;;;-0.10;78.64
21760;BME280;11041;50.854;20.580;2023-03-04T09:23:15;98309.81;;;-0.09;78.71
21760;BME280;11041;50.854;20.580;2023-03-04T09:25:44;98309.84;;;-0.04;79.28
21760;BME280;11041;50.854;20.580;2023-03-04T09:28:12;98316.06;;;-0.03;78.65
21760;BME280;11041;50.854;20.580;2023-03-04T09:30:39;98307.75;;;0.04;78.70
21760;BME280;11041;50.854;20.580;2023-03-04T09:33:06;98312.34;;;0.03;79.30
21760;BME280;11041;50.854;20.580;2023-03-04T09:35:33;98276.28;;;-0.13;78.52
21760;BME280;11041;50.854;20.580;2023-03-04T09:37:59;98290.13;;;-0.04;78.65
21760;BME280;11041;50.854;20.580;2023-03-04T09:40:47;98315.34;;;0.07;78.41
21760;BME280;11041;50.854;20.580;2023-03-04T09:43:22;98280.13;;;-0.04;78.48
21760;BME280;11041;50.854;20.580;2023-03-04T09:45:56;98280.38;;;-0.05;78.27
21760;BME280;11041;50.854;20.580;2023-03-04T09:48:39;98298.63;;;0.10;78.51
21760;BME280;11041;50.854;20.580;2023-03-04T09:54:24;98296.53;;;0.17;78.58
21760;BME280;11041;50.854;20.580;2023-03-04T09:57:00;98278.84;;;0.04;78.82
21760;BME280;11041;50.854;20.580;2023-03-04T09:59:47;98282.69;;;0.13;78.11
21760;BME280;11041;50.854;20.580;2023-03-04T10:05:32;98287.72;;;0.32;78.28
21760;BME280;11041;50.854;20.580;2023-03-04T10:08:37;98287.72;;;0.32;78.45
21760;BME280;11041;50.854;20.580;2023-03-04T10:11:24;98270.41;;;0.33;78.19
21760;BME280;11041;50.854;20.580;2023-03-04T10:19:58;98250.94;;;0.31;77.74
21760;BME280;11041;50.854;20.580;2023-03-04T10:22:43;98242.03;;;0.30;77.83
21760;BME280;11041;50.854;20.580;2023-03-04T10:25:29;98265.84;;;0.38;78.16
21760;BME280;11041;50.854;20.580;2023-03-04T10:28:14;98249.34;;;0.35;78.14
21760;BME280;11041;50.854;20.580;2023-03-04T10:33:41;98249.38;;;0.40;78.23
21760;BME280;11041;50.854;20.580;2023-03-04T10:41:53;98216.88;;;0.25;78.54
21760;BME280;11041;50.854;20.580;2023-03-04T10:44:21;98236.09;;;0.38;78.86
21760;BME280;11041;50.854;20.580;2023-03-04T10:46:53;98239.94;;;0.48;78.58
21760;BME280;11041;50.854;20.580;2023-03-04T10:49:22;98239.69;;;0.49;78.72
21760;BME280;11041;50.854;20.580;2023-03-04T10:54:37;98221.31;;;0.46;78.55
21760;BME280;11041;50.854;20.580;2023-03-04T10:57:18;98232.97;;;0.57;78.54
21760;BME280;11041;50.854;20.580;2023-03-04T11:00:35;98226.22;;;0.59;78.30
21760;BME280;11041;50.854;20.580;2023-03-04T11:06:18;98223.06;;;0.73;77.97
21760;BME280;11041;50.854;20.580;2023-03-04T11:08:57;98196.22;;;0.61;78.38
21760;BME280;11041;50.854;20.580;2023-03-04T11:11:42;98208.72;;;0.72;78.26
21760;BME280;11041;50.854;20.580;2023-03-04T11:14:24;98207.91;;;0.72;78.36
21760;BME280;11041;50.854;20.580;2023-03-04T11:17:08;98191.66;;;0.72;78.30
21760;BME280;11041;50.854;20.580;2023-03-04T11:19:46;98192.78;;;0.76;78.49
21760;BME280;11041;50.854;20.580;2023-03-04T11:22:17;98205.53;;;0.85;78.53
21760;BME280;11041;50.854;20.580;2023-03-04T11:24:58;98214.44;;;0.91;78.53
21760;BME280;11041;50.854;20.580;2023-03-04T11:27:47;98214.44;;;0.86;78.78
21760;BME280;11041;50.854;20.580;2023-03-04T11:30:44;98206.88;;;0.93;78.63
21760;BME280;11041;50.854;20.580;2023-03-04T11:33:40;98192.25;;;0.84;79.03
21760;BME280;11041;50.854;20.580;2023-03-04T11:39:21;98153.00;;;0.66;79.04
21760;BME280;11041;50.854;20.580;2023-03-04T11:55:17;98204.25;;;1.14;79.58
21760;BME280;11041;50.854;20.580;2023-03-04T12:01:19;98177.47;;;1.17;79.61
21760;BME280;11041;50.854;20.580;2023-03-04T12:04:29;98184.78;;;1.17;79.84
21760;BME280;11041;50.854;20.580;2023-03-04T12:10:24;98184.22;;;1.15;80.45
21760;BME280;11041;50.854;20.580;2023-03-04T12:22:18;98166.38;;;1.14;81.53
21760;BME280;11041;50.854;20.580;2023-03-04T12:25:31;98168.78;;;1.15;82.05
21760;BME280;11041;50.854;20.580;2023-03-04T12:28:57;98150.13;;;1.03;83.13
21760;BME280;11041;50.854;20.580;2023-03-04T12:31:40;98156.59;;;1.08;83.13
21760;BME280;11041;50.854;20.580;2023-03-04T12:34:54;98149.84;;;1.10;83.36
21760;BME280;11041;50.854;20.580;2023-03-04T12:53:09;98106.78;;;0.78;84.95
21760;BME280;11041;50.854;20.580;2023-03-04T12:55:58;98080.00;;;0.76;85.20
21760;BME280;11041;50.854;20.580;2023-03-04T13:02:53;98097.88;;;1.08;84.90
21760;BME280;11041;50.854;20.580;2023-03-04T13:10:10;98078.44;;;1.16;84.77
21760;BME280;11041;50.854;20.580;2023-03-04T13:17:35;98078.97;;;1.13;84.67
21760;BME280;11041;50.854;20.580;2023-03-04T13:32:37;98085.44;;;1.07;85.26
21760;BME280;11041;50.854;20.580;2023-03-04T13:47:43;98114.97;;;1.19;86.64
21760;BME280;11041;50.854;20.580;2023-03-04T13:50:33;98118.72;;;1.08;86.98
21760;BME280;11041;50.854;20.580;2023-03-04T13:59:31;98104.66;;;1.11;87.32
21760;BME280;11041;50.854;20.580;2023-03-04T14:02:41;98064.06;;;0.85;87.17
21760;BME280;11041;50.854;20.580;2023-03-04T14:05:11;98101.13;;;1.05;87.14
21760;BME280;11041;50.854;20.580;2023-03-04T14:07:50;98133.34;;;1.22;87.55
21760;BME280;11041;50.854;20.580;2023-03-04T14:11:32;98099.78;;;1.08;87.21
21760;BME280;11041;50.854;20.580;2023-03-04T14:22:55;98083.56;;;0.97;87.68
21760;BME280;11041;50.854;20.580;2023-03-04T14:28:59;98073.28;;;1.04;87.92
21760;BME280;11041;50.854;20.580;2023-03-04T14:31:58;98057.56;;;0.86;87.80
21760;BME280;11041;50.854;20.580;2023-03-04T14:35:03;98063.00;;;1.06;88.41
21760;BME280;11041;50.854;20.580;2023-03-04T14:37:52;98079.78;;;1.24;88.13
21760;BME280;11041;50.854;20.580;2023-03-04T14:40:25;98094.41;;;1.33;88.19
21760;BME280;11041;50.854;20.580;2023-03-04T14:43:03;98078.97;;;1.28;88.16
21760;BME280;11041;50.854;20.580;2023-03-04T14:45:31;98092.50;;;1.39;87.93
21760;BME280;11041;50.854;20.580;2023-03-04T14:48:05;98092.22;;;1.40;88.43
21760;BME280;11041;50.854;20.580;2023-03-04T14:50:36;98067.88;;;1.30;87.41
21760;BME280;11041;50.854;20.580;2023-03-04T14:53:19;98065.16;;;1.40;87.75
21760;BME280;11041;50.854;20.580;2023-03-04T14:56:01;98069.75;;;1.50;87.78
21760;BME280;11041;50.854;20.580;2023-03-04T14:58:51;98051.06;;;1.43;87.66
21760;BME280;11041;50.854;20.580;2023-03-04T15:02:42;98055.09;;;1.56;87.19
21760;BME280;11041;50.854;20.580;2023-03-04T15:10:36;98029.13;;;1.35;86.79
21760;BME280;11041;50.854;20.580;2023-03-04T15:21:34;98051.81;;;1.75;87.23
21760;BME280;11041;50.854;20.580;2023-03-04T15:24:19;98010.97;;;1.56;86.51
21760;BME280;11041;50.854;20.580;2023-03-04T15:27:15;98032.31;;;1.78;86.66
21760;BME280;11041;50.854;20.580;2023-03-04T15:30:44;98005.56;;;1.56;86.55
21760;BME280;11041;50.854;20.580;2023-03-04T15:34:15;98035.81;;;1.83;86.47
21760;BME280;11041;50.854;20.580;2023-03-04T15:37:02;98039.06;;;1.80;86.69
21760;BME280;11041;50.854;20.580;2023-03-04T15:40:34;98002.81;;;1.66;86.37
21760;BME280;11041;50.854;20.580;2023-03-04T15:43:36;98035.59;;;1.69;86.39
21760;BME280;11041;50.854;20.580;2023-03-04T15:46:47;98011.47;;;1.78;86.17
21760;BME280;11041;50.854;20.580;2023-03-04T15:53:52;98001.78;;;1.52;86.18